Terminal Aerodrome Forecast
Issued by NWS

Home | Current Version | Previous Version | Text Only | Print | Product List | Glossary On
Versions: 1 2 3 4 5 6 7 8 9 10 11 12 13 14 15 16 17 18 19 20 21 22 23 24 25 26
000
FTUS41 KCAR 250137 AAB
TAFBHB
TAF AMD
KBHB 250137Z 2502/2524 VRB03KT 2SM BR OVC004
     FM251200 VRB03KT P6SM BKN008
     FM251500 18005KT P6SM BKN015
     FM251700 20007KT P6SM BKN025
     FM251900 20008KT P6SM BKN035
     FM252100 20008KT P6SM VCSH BKN045=

USA.gov is the U.S. government's official web portal to all federal, state and local government web resources and services.